Time;durP1;ratioP1;P1;durP2;ratioP2;P2;SDS_P1;SDS_P2;PMS_P1;PMS_P2;Temp;Humidity;BMP_temperature;BMP_pressure;BME280_temperature;BME280_humidity;BME280_pressure;Samples;Min_cycle;Max_cycle;Signal;HPM_P1;HPM_P2
2023/01/24 00:00:14;;;;;;;26.60;15.52;;;;;;;0.67;95.22;103367.88;7398252;19;20078;-70
2023/01/24 00:02:42;;;;;;;21.27;14.85;;;;;;;0.67;95.71;103362.72;7401161;19;20018;-69
2023/01/24 00:05:11;;;;;;;21.75;14.02;;;;;;;0.66;95.07;103361.84;7400377;19;20082;-69
2023/01/24 00:07:39;;;;;;;20.85;14.65;;;;;;;0.64;94.88;103364.34;7400407;19;20019;-73
2023/01/24 00:10:09;;;;;;;22.48;14.75;;;;;;;0.63;94.48;103359.06;7400266;19;20093;-69
2023/01/24 00:12:41;;;;;;;22.45;14.25;;;;;;;0.60;95.46;103356.28;7401102;19;20019;-69
2023/01/24 00:15:11;;;;;;;20.88;14.75;;;;;;;0.62;95.40;103357.25;7400547;19;20018;-70
2023/01/24 00:17:39;;;;;;;20.80;13.32;;;;;;;0.61;95.33;103348.63;7398252;19;20002;-69
2023/01/24 00:20:09;;;;;;;21.10;13.38;;;;;;;0.62;95.48;103353.00;7398958;19;20014;-70
2023/01/24 00:22:37;;;;;;;23.20;14.95;;;;;;;0.62;94.98;103350.41;7400219;19;20038;-70
2023/01/24 00:25:06;;;;;;;21.75;14.98;;;;;;;0.62;95.36;103344.34;7399741;19;20144;-70
2023/01/24 00:27:35;;;;;;;23.27;15.13;;;;;;;0.61;95.46;103340.00;7400021;19;20021;-70
2023/01/24 00:30:07;;;;;;;20.38;14.30;;;;;;;0.62;95.27;103334.00;7399537;19;20377;-69
2023/01/24 00:32:36;;;;;;;22.15;14.75;;;;;;;0.61;95.40;103335.72;7399573;19;20015;-70
2023/01/24 00:35:05;;;;;;;21.98;13.82;;;;;;;0.62;95.44;103337.50;7399366;19;20548;-70
2023/01/24 00:37:33;;;;;;;27.77;14.98;;;;;;;0.63;95.50;103343.53;7399327;19;20477;-70
2023/01/24 00:40:01;;;;;;;21.77;14.35;;;;;;;0.63;95.26;103340.97;7398941;19;20086;-70
2023/01/24 00:42:30;;;;;;;21.55;14.23;;;;;;;0.63;95.58;103351.28;7399649;19;20019;-70
2023/01/24 00:44:59;;;;;;;23.52;14.98;;;;;;;0.63;95.00;103346.13;7397170;19;20019;-70
2023/01/24 00:47:30;;;;;;;24.13;14.13;;;;;;;0.63;95.54;103356.47;7396711;19;20066;-70
2023/01/24 00:49:58;;;;;;;25.42;14.85;;;;;;;0.63;95.60;103352.22;7399751;19;20006;-70
2023/01/24 00:52:26;;;;;;;20.73;14.18;;;;;;;0.62;94.58;103358.16;7396989;19;20094;-70
2023/01/24 00:54:55;;;;;;;21.88;13.90;;;;;;;0.61;94.35;103360.66;7396350;19;20041;-70
2023/01/24 00:57:24;;;;;;;23.13;14.60;;;;;;;0.59;94.96;103357.09;7398666;19;20488;-70
2023/01/24 00:59:52;;;;;;;22.50;14.93;;;;;;;0.59;94.62;103359.66;7396629;19;20019;-70
2023/01/24 01:02:21;;;;;;;21.88;14.55;;;;;;;0.57;94.88;103358.66;7398885;19;20014;-70
2023/01/24 01:04:52;;;;;;;23.40;14.18;;;;;;;0.56;94.93;103360.38;7396672;19;20029;-70
2023/01/24 01:07:22;;;;;;;23.80;14.88;;;;;;;0.55;94.40;103352.53;7399206;19;20024;-70
2023/01/24 01:09:51;;;;;;;21.13;13.13;;;;;;;0.54;94.72;103350.75;7396227;19;20021;-70
2023/01/24 01:12:19;;;;;;;19.60;13.85;;;;;;;0.53;94.25;103360.19;7396139;19;20040;-70
2023/01/24 01:14:48;;;;;;;22.58;13.15;;;;;;;0.52;94.14;103358.41;7396530;19;20023;-70
2023/01/24 01:17:16;;;;;;;22.55;14.70;;;;;;;0.50;94.50;103364.28;7397154;19;20070;-70
2023/01/24 01:19:45;;;;;;;24.48;15.60;;;;;;;0.51;94.68;103368.66;7398074;19;20010;-70
2023/01/24 01:22:16;;;;;;;22.13;14.90;;;;;;;0.50;94.07;103366.88;7398193;19;20017;-70
2023/01/24 01:24:45;;;;;;;19.52;14.15;;;;;;;0.48;94.74;103367.66;7395932;19;20029;-70
2023/01/24 01:27:14;;;;;;;22.38;14.45;;;;;;;0.51;95.30;103366.06;7398042;19;20024;-70
2023/01/24 01:29:42;;;;;;;23.25;15.75;;;;;;;0.50;95.03;103367.75;7397567;19;20019;-70
2023/01/24 01:32:11;;;;;;;32.22;15.48;;;;;;;0.50;94.29;103367.75;7395603;19;20018;-70
2023/01/24 01:34:39;;;;;;;20.63;13.93;;;;;;;0.48;94.22;103359.91;7395658;19;20482;-70
2023/01/24 01:37:08;;;;;;;21.98;14.27;;;;;;;0.47;94.41;103359.81;7393610;19;20596;-70
2023/01/24 01:39:39;;;;;;;25.00;14.80;;;;;;;0.48;95.03;103365.06;7397580;19;20029;-69
2023/01/24 01:42:07;;;;;;;20.88;14.50;;;;;;;0.48;94.35;103361.56;7395708;19;20022;-70
2023/01/24 01:44:46;;;;;;;21.75;12.98;;;;;;;0.47;94.28;103365.88;7395534;19;20019;-70
2023/01/24 01:47:30;;;;;;;22.02;14.15;;;;;;;0.48;94.83;103366.75;7397062;19;20354;-70
2023/01/24 01:50:04;;;;;;;22.02;14.65;;;;;;;0.47;94.94;103367.56;7394906;19;20426;-70
2023/01/24 01:52:37;;;;;;;22.88;14.05;;;;;;;0.48;94.13;103369.31;7397703;19;20078;-69
2023/01/24 01:55:12;;;;;;;18.88;12.80;;;;;;;0.47;94.39;103372.72;7397575;19;20025;-69
2023/01/24 01:57:41;;;;;;;20.88;13.38;;;;;;;0.46;94.25;103369.22;7396863;19;20082;-69
2023/01/24 02:00:14;;;;;;;23.15;14.65;;;;;;;0.45;94.50;103367.44;7396675;19;20022;-69
2023/01/24 02:02:45;;;;;;;21.98;13.75;;;;;;;0.47;94.92;103376.19;7394127;19;20024;-70
2023/01/24 02:05:17;;;;;;;19.20;14.00;;;;;;;0.47;94.82;103375.31;7396555;19;20386;-70
2023/01/24 02:07:50;;;;;;;22.73;14.75;;;;;;;0.48;94.64;103377.06;7396387;19;20011;-69
2023/01/24 02:10:24;;;;;;;22.40;14.02;;;;;;;0.46;94.59;103379.56;7397113;19;20020;-69
2023/01/24 02:12:56;;;;;;;22.98;14.18;;;;;;;0.46;94.54;103384.72;7396039;19;20538;-68
2023/01/24 02:18:09;;;;;;;21.42;15.18;;;;;;;0.45;94.96;103380.34;7394908;19;20492;-69
2023/01/24 02:20:41;;;;;;;23.00;13.65;;;;;;;0.45;94.54;103375.19;7395780;19;20028;-69
2023/01/24 02:23:23;;;;;;;22.38;13.88;;;;;;;0.45;94.39;103376.91;7396167;19;20031;-69
2023/01/24 02:26:05;;;;;;;20.40;13.30;;;;;;;0.43;94.62;103379.38;7396201;19;20363;-69
2023/01/24 02:28:34;;;;;;;22.10;14.95;;;;;;;0.44;94.25;103375.09;7396502;19;20093;-69
2023/01/24 02:31:03;;;;;;;23.33;14.60;;;;;;;0.44;94.68;103378.59;7395947;19;20082;-71
2023/01/24 02:33:33;;;;;;;25.05;14.63;;;;;;;0.46;94.91;103378.69;7394937;19;20485;-70
2023/01/24 02:36:16;;;;;;;25.10;14.18;;;;;;;0.44;93.55;103383.75;7396112;19;20066;-70
2023/01/24 02:38:49;;;;;;;24.98;14.85;;;;;;;0.43;94.48;103384.56;7396301;19;20014;-69
2023/01/24 02:41:26;;;;;;;24.50;15.15;;;;;;;0.43;94.27;103383.66;7395250;19;20024;-69
2023/01/24 02:43:59;;;;;;;23.60;14.95;;;;;;;0.42;94.20;103381.88;7394940;19;20090;-69
2023/01/24 02:46:27;;;;;;;24.10;14.68;;;;;;;0.41;94.17;103377.50;7396242;19;20035;-69
2023/01/24 02:48:55;;;;;;;22.83;14.68;;;;;;;0.40;94.27;103379.19;7395714;19;20019;-70
2023/01/24 02:54:05;;;;;;;26.23;15.05;;;;;;;0.39;93.22;103373.94;7394359;19;20019;-69
2023/01/24 02:59:17;;;;;;;26.40;14.00;;;;;;;0.37;93.39;103384.16;7395448;19;20477;-69
2023/01/24 03:01:45;;;;;;;29.73;15.65;;;;;;;0.36;93.48;103384.97;7393504;19;20082;-69
2023/01/24 03:04:15;;;;;;;24.88;15.02;;;;;;;0.35;93.75;103384.88;7393826;19;20018;-69
2023/01/24 03:06:44;;;;;;;25.17;14.57;;;;;;;0.35;93.45;103382.28;7392909;19;20493;-69
2023/01/24 03:09:33;;;;;;;26.80;15.25;;;;;;;0.34;93.80;103381.38;7393129;19;20040;-69
2023/01/24 03:36:20;;;;;;;26.80;15.52;;;;;;;0.24;92.94;103373.84;7394545;19;20346;-70
2023/01/24 03:41:29;;;;;;;26.02;15.02;;;;;;;0.20;92.73;103379.63;7393075;19;20007;-69
2023/01/24 03:44:00;;;;;;;28.17;15.77;;;;;;;0.17;92.73;103380.31;7392788;19;20020;-70
2023/01/24 03:46:28;;;;;;;35.75;15.88;;;;;;;0.17;93.42;103379.44;7391525;19;20490;-69
2023/01/24 03:48:57;;;;;;;31.25;16.55;;;;;;;0.13;93.66;103380.94;7391430;19;20373;-69
2023/01/24 03:54:06;;;;;;;33.13;16.02;;;;;;;0.12;93.38;103382.59;7392642;19;20086;-69
2023/01/24 03:56:35;;;;;;;30.98;16.42;;;;;;;0.13;94.08;103373.19;7391488;19;20019;-69
2023/01/24 03:59:06;;;;;;;31.77;17.15;;;;;;;0.11;93.87;103370.47;7393375;19;20014;-69
2023/01/24 04:01:34;;;;;;;40.80;16.88;;;;;;;0.13;93.75;103374.06;7396758;19;20025;-69
2023/01/24 04:04:02;;;;;;;29.63;17.15;;;;;;;0.15;94.14;103377.66;7398997;19;20101;-69
2023/01/24 04:06:31;;;;;;;33.92;17.75;;;;;;;0.15;93.62;103381.91;7400294;19;20015;-69
2023/01/24 04:09:00;;;;;;;35.53;18.13;;;;;;;0.16;94.02;103378.53;7400533;19;20025;-72
2023/01/24 04:11:28;;;;;;;36.22;18.40;;;;;;;0.16;94.34;103370.78;7400361;19;20379;-69
2023/01/24 04:14:05;;;;;;;37.38;18.35;;;;;;;0.18;94.20;103376.03;7399423;19;20018;-69
2023/01/24 04:16:34;;;;;;;34.17;17.00;;;;;;;0.17;94.14;103374.28;7399858;19;20013;-69
2023/01/24 04:19:08;;;;;;;32.22;18.17;;;;;;;0.18;94.68;103368.28;7397872;19;20014;-69
2023/01/24 04:21:37;;;;;;;38.25;18.92;;;;;;;0.18;94.60;103369.22;7399561;19;20078;-69
2023/01/24 04:24:05;;;;;;;42.20;19.55;;;;;;;0.18;94.02;103378.63;7398069;19;20541;-68
2023/01/24 04:26:34;;;;;;;37.25;19.08;;;;;;;0.17;94.22;103382.03;7399984;19;20066;-69
2023/01/24 04:29:02;;;;;;;41.25;20.65;;;;;;;0.14;93.69;103374.97;7397164;19;20078;-69
2023/01/24 04:31:33;;;;;;;40.95;21.40;;;;;;;0.12;94.15;103373.97;7399482;19;20011;-69
2023/01/24 04:34:01;;;;;;;33.85;19.27;;;;;;;0.10;93.46;103375.56;7398454;19;20019;-69
2023/01/24 04:36:30;;;;;;;40.75;21.15;;;;;;;0.07;93.57;103370.22;7400400;19;20026;-69
2023/01/24 04:38:58;;;;;;;37.05;20.25;;;;;;;0.04;93.14;103378.66;7399055;19;20086;-70
2023/01/24 04:41:27;;;;;;;32.03;18.73;;;;;;;0.02;94.21;103374.19;7397625;19;20493;-70
2023/01/24 04:43:55;;;;;;;37.63;19.60;;;;;;;0.01;94.45;103367.25;7397406;19;20015;-69
2023/01/24 04:49:02;;;;;;;37.58;19.95;;;;;;;0.01;94.64;103375.88;7396271;19;20386;-70
2023/01/24 04:51:30;;;;;;;38.90;20.30;;;;;;;-0.02;94.13;103363.66;7396438;19;20510;-70
2023/01/24 04:53:59;;;;;;;34.38;19.55;;;;;;;-0.05;93.70;103358.31;7397394;19;20086;-70
2023/01/24 04:56:27;;;;;;;38.20;19.92;;;;;;;-0.07;93.60;103367.63;7396077;19;20078;-70
2023/01/24 04:58:56;;;;;;;39.70;18.45;;;;;;;-0.08;94.13;103367.53;7398653;19;20502;-70
2023/01/24 05:01:24;;;;;;;41.50;20.65;;;;;;;-0.09;93.97;103368.31;7397996;19;20035;-70
2023/01/24 05:03:58;;;;;;;40.60;19.52;;;;;;;-0.10;94.46;103370.03;7396840;19;20506;-70
2023/01/24 05:06:32;;;;;;;38.97;19.80;;;;;;;-0.09;94.47;103374.41;7398027;19;20022;-69
2023/01/24 05:09:01;;;;;;;34.58;18.80;;;;;;;-0.08;94.49;103372.69;7396488;19;20019;-69
2023/01/24 05:11:29;;;;;;;34.70;20.23;;;;;;;-0.08;94.46;103362.38;7397303;19;20086;-70
2023/01/24 05:13:58;;;;;;;37.40;19.58;;;;;;;-0.08;94.48;103364.97;7395232;19;20031;-70
2023/01/24 05:16:26;;;;;;;41.00;19.40;;;;;;;-0.09;94.48;103366.66;7398465;19;20082;-70
2023/01/24 05:18:55;;;;;;;37.67;20.73;;;;;;;-0.10;94.59;103362.28;7395922;19;20074;-69
2023/01/24 05:21:23;;;;;;;44.92;19.30;;;;;;;-0.09;94.93;103358.91;7395954;19;20445;-70
2023/01/24 05:23:55;;;;;;;36.40;20.05;;;;;;;-0.10;94.51;103363.97;7396334;19;20094;-70
2023/01/24 05:26:26;;;;;;;37.83;19.52;;;;;;;-0.11;93.99;103360.50;7398229;19;20074;-70
2023/01/24 05:28:56;;;;;;;39.78;20.02;;;;;;;-0.11;94.67;103362.19;7398185;19;20087;-68
2023/01/24 05:31:24;;;;;;;33.75;18.30;;;;;;;-0.11;94.68;103367.34;7397654;19;20093;-69
2023/01/24 05:33:53;;;;;;;38.85;19.65;;;;;;;-0.12;94.41;103368.16;7396469;19;20018;-69
2023/01/24 05:36:23;;;;;;;37.90;19.08;;;;;;;-0.12;94.49;103374.19;7397182;19;20435;-70
2023/01/24 05:38:54;;;;;;;33.85;19.40;;;;;;;-0.12;94.37;103375.88;7397321;19;20082;-69
2023/01/24 05:41:23;;;;;;;39.83;19.88;;;;;;;-0.12;94.21;103378.47;7395218;19;20039;-69
2023/01/24 05:43:52;;;;;;;40.10;20.77;;;;;;;-0.13;94.46;103379.25;7394859;19;20540;-69
2023/01/24 05:46:22;;;;;;;35.30;18.40;;;;;;;-0.14;94.22;103388.66;7397134;19;20022;-69
2023/01/24 05:48:51;;;;;;;34.53;19.35;;;;;;;-0.15;94.10;103392.06;7397355;19;20031;-69
2023/01/24 05:51:21;;;;;;;36.20;18.10;;;;;;;-0.16;93.41;103395.44;7396866;19;20082;-69
2023/01/24 05:53:50;;;;;;;34.45;19.05;;;;;;;-0.19;93.38;103405.53;7396699;19;20107;-70
2023/01/24 05:56:22;;;;;;;33.30;17.42;;;;;;;-0.20;94.32;103399.50;7397346;19;20078;-69
2023/01/24 05:58:51;;;;;;;39.58;19.73;;;;;;;-0.21;93.26;103396.81;7395324;19;20090;-69
2023/01/24 06:01:21;;;;;;;33.13;16.98;;;;;;;-0.21;93.95;103400.28;7394866;19;20077;-69
2023/01/24 06:03:51;;;;;;;35.47;18.95;;;;;;;-0.23;94.02;103399.31;7394065;19;20078;-69
2023/01/24 06:06:22;;;;;;;34.97;17.55;;;;;;;-0.24;93.27;103396.59;7395183;19;20502;-70
2023/01/24 06:08:51;;;;;;;34.70;18.75;;;;;;;-0.24;93.79;103396.59;7394920;19;20070;-69
2023/01/24 06:11:24;;;;;;;36.65;17.77;;;;;;;-0.26;94.10;103396.50;7393517;19;20090;-70
2023/01/24 06:13:55;;;;;;;34.08;18.08;;;;;;;-0.25;93.68;103385.41;7394871;19;20407;-69
2023/01/24 06:16:26;;;;;;;38.30;17.95;;;;;;;-0.24;94.10;103400.09;7395544;19;20085;-72
2023/01/24 06:18:56;;;;;;;38.25;18.08;;;;;;;-0.23;93.92;103404.47;7393535;19;20550;-68
2023/01/24 06:21:44;;;;;;;38.70;19.25;;;;;;;-0.23;93.74;103404.47;7393968;19;20074;-70
2023/01/24 06:24:19;;;;;;;39.17;20.15;;;;;;;-0.23;93.87;103401.91;7392058;19;20086;-70
2023/01/24 06:26:51;;;;;;;33.63;19.52;;;;;;;-0.23;94.09;103406.13;7394290;19;20022;-69
2023/01/24 06:29:21;;;;;;;31.55;18.27;;;;;;;-0.25;93.42;103411.22;7395620;19;20013;-69
2023/01/24 06:32:06;;;;;;;38.25;19.10;;;;;;;-0.26;93.67;103412.00;7394825;19;20509;-69
2023/01/24 06:34:49;;;;;;;35.80;18.77;;;;;;;-0.26;94.05;103409.41;7394120;19;20035;-70
2023/01/24 06:37:27;;;;;;;35.33;18.35;;;;;;;-0.27;92.39;103422.22;7395528;19;20014;-70
2023/01/24 06:39:56;;;;;;;34.17;17.95;;;;;;;-0.30;92.53;103427.16;7393830;19;20489;-70
2023/01/24 06:42:28;;;;;;;37.05;18.55;;;;;;;-0.33;92.84;103427.84;7394811;19;20073;-69
2023/01/24 06:44:56;;;;;;;39.47;18.80;;;;;;;-0.34;93.11;103432.13;7393139;19;20112;-70
2023/01/24 06:47:26;;;;;;;31.10;18.38;;;;;;;-0.35;93.47;103440.66;7394257;19;20090;-70
2023/01/24 06:49:55;;;;;;;36.63;18.70;;;;;;;-0.35;93.54;103434.63;7394905;19;20106;-70
2023/01/24 06:52:23;;;;;;;37.10;19.20;;;;;;;-0.35;92.83;103434.63;7394793;19;20041;-70
2023/01/24 06:54:52;;;;;;;36.28;20.10;;;;;;;-0.37;92.54;103439.69;7393121;19;20086;-69
2023/01/24 06:57:20;;;;;;;34.97;19.05;;;;;;;-0.36;93.40;103445.72;7392913;19;20461;-70
2023/01/24 06:59:51;;;;;;;36.53;18.98;;;;;;;-0.37;92.16;103443.94;7392256;19;20074;-70
2023/01/24 07:02:20;;;;;;;37.15;18.90;;;;;;;-0.39;92.63;103453.25;7391909;19;20074;-69
2023/01/24 07:04:48;;;;;;;33.60;18.23;;;;;;;-0.40;92.79;103456.63;7392002;19;20087;-71
2023/01/24 07:07:17;;;;;;;34.72;20.00;;;;;;;-0.40;93.04;103454.94;7393687;19;20074;-70
2023/01/24 07:09:45;;;;;;;32.05;17.90;;;;;;;-0.41;92.77;103460.88;7392043;19;20018;-71
2023/01/24 07:12:14;;;;;;;34.33;19.02;;;;;;;-0.41;93.15;103466.03;7392778;19;20166;-69
2023/01/24 07:14:43;;;;;;;35.60;17.63;;;;;;;-0.40;93.59;103467.84;7392511;19;20022;-70
2023/01/24 07:17:14;;;;;;;35.03;17.88;;;;;;;-0.40;93.05;103469.53;7392466;19;20015;-70
2023/01/24 07:19:44;;;;;;;36.03;17.67;;;;;;;-0.40;93.13;103469.53;7392515;19;20019;-69
2023/01/24 07:22:14;;;;;;;32.90;17.67;;;;;;;-0.41;92.33;103475.47;7392291;19;20022;-70
2023/01/24 07:24:44;;;;;;;36.05;18.65;;;;;;;-0.43;92.08;103471.88;7392368;19;20485;-69
2023/01/24 07:27:13;;;;;;;34.00;19.00;;;;;;;-0.44;92.55;103483.91;7392575;19;20034;-70
2023/01/24 07:29:42;;;;;;;33.58;17.38;;;;;;;-0.43;92.93;103482.22;7393802;19;20083;-69
2023/01/24 07:32:14;;;;;;;32.00;16.75;;;;;;;-0.43;92.56;103485.69;7391882;19;20074;-70
2023/01/24 07:34:42;;;;;;;29.75;17.00;;;;;;;-0.42;93.28;103487.47;7392546;19;20014;-71
2023/01/24 07:37:11;;;;;;;30.45;17.02;;;;;;;-0.41;93.13;103480.63;7397332;19;20018;-68
2023/01/24 07:39:39;;;;;;;28.42;18.08;;;;;;;-0.41;93.30;103484.09;7401308;19;20019;-69
2023/01/24 07:42:08;;;;;;;31.63;16.98;;;;;;;-0.37;93.60;103487.78;7398509;19;20014;-70
2023/01/24 07:44:36;;;;;;;36.67;18.63;;;;;;;-0.35;93.21;103493.94;7398745;19;20074;-69
2023/01/24 07:47:05;;;;;;;30.52;17.67;;;;;;;-0.35;92.69;103493.94;7397884;19;20109;-69
2023/01/24 07:49:36;;;;;;;29.38;16.85;;;;;;;-0.36;92.79;103494.75;7398175;19;20082;-70
2023/01/24 07:52:04;;;;;;;26.02;16.38;;;;;;;-0.37;92.72;103493.84;7401182;19;20090;-69
2023/01/24 07:54:33;;;;;;;31.17;18.67;;;;;;;-0.37;93.15;103493.84;7397841;19;20074;-69
2023/01/24 07:57:02;;;;;;;32.25;17.65;;;;;;;-0.37;92.70;103496.44;7398549;19;20021;-69
2023/01/24 07:59:31;;;;;;;32.50;17.67;;;;;;;-0.36;92.77;103498.19;7399982;19;20086;-69
2023/01/24 08:01:59;;;;;;;30.55;17.65;;;;;;;-0.34;92.57;103504.38;7398935;19;20393;-70
2023/01/24 08:04:27;;;;;;;33.25;18.10;;;;;;;-0.32;93.07;103490.69;7397344;19;20039;-70
2023/01/24 08:09:39;;;;;;;29.73;17.08;;;;;;;-0.33;91.84;103500.09;7399898;19;20382;-69
2023/01/24 08:12:08;;;;;;;29.17;16.63;;;;;;;-0.32;92.33;103496.72;7397259;19;20081;-69
2023/01/24 08:14:36;;;;;;;31.50;17.58;;;;;;;-0.31;92.41;103498.53;7396637;19;20082;-69
2023/01/24 08:17:05;;;;;;;32.45;16.73;;;;;;;-0.27;92.99;103492.78;7398689;19;20086;-68
2023/01/24 08:19:35;;;;;;;36.95;18.63;;;;;;;-0.23;93.07;103486.13;7397336;19;20081;-68
2023/01/24 08:22:06;;;;;;;29.40;16.67;;;;;;;-0.17;93.27;103481.38;7398938;19;20481;-69
2023/01/24 08:24:35;;;;;;;34.78;17.52;;;;;;;-0.11;93.45;103484.38;7397001;19;20077;-71
2023/01/24 08:27:05;;;;;;;31.27;17.73;;;;;;;-0.04;93.12;103478.84;7400107;19;20078;-69
2023/01/24 08:29:34;;;;;;;30.85;17.48;;;;;;;0.01;93.09;103478.22;7396734;19;20017;-70
2023/01/24 08:32:02;;;;;;;29.23;17.00;;;;;;;0.04;92.47;103487.06;7397291;19;20045;-70
2023/01/24 08:34:31;;;;;;;30.88;16.73;;;;;;;0.05;92.54;103482.78;7396697;19;20117;-70
2023/01/24 08:36:59;;;;;;;28.23;16.48;;;;;;;0.07;92.55;103484.69;7399205;19;20011;-70
2023/01/24 08:39:30;;;;;;;32.35;17.30;;;;;;;0.09;92.16;103482.19;7399335;19;20094;-69
2023/01/24 08:41:59;;;;;;;32.55;17.73;;;;;;;0.08;91.78;103489.06;7399607;19;20078;-70
2023/01/24 08:44:27;;;;;;;30.88;17.27;;;;;;;0.07;90.98;103487.25;7397041;19;20085;-68
2023/01/24 08:46:55;;;;;;;34.20;17.15;;;;;;;0.08;91.15;103494.22;7398792;19;20077;-69
2023/01/24 08:49:24;;;;;;;28.75;16.10;;;;;;;0.07;90.62;103487.25;7396181;19;20012;-69
2023/01/24 08:51:58;;;;;;;29.98;17.63;;;;;;;0.08;91.85;103488.19;7398575;19;20070;-69
2023/01/24 08:54:32;;;;;;;32.17;18.58;;;;;;;0.09;91.88;103492.53;7396705;19;20018;-70
2023/01/24 08:57:00;;;;;;;34.83;18.37;;;;;;;0.09;90.72;103489.94;7396716;19;20018;-70
2023/01/24 08:59:29;;;;;;;36.75;18.60;;;;;;;0.09;90.02;103485.69;7395595;19;20085;-69
2023/01/24 09:01:57;;;;;;;35.38;17.50;;;;;;;0.09;89.91;103492.53;7397893;19;20014;-70
2023/01/24 09:04:26;;;;;;;36.92;17.67;;;;;;;0.11;90.20;103498.69;7394944;19;20096;-70
2023/01/24 09:06:55;;;;;;;34.15;16.83;;;;;;;0.13;89.56;103497.13;7397372;19;20533;-69
2023/01/24 09:09:24;;;;;;;34.25;16.88;;;;;;;0.13;89.83;103489.38;7397501;19;20037;-69
2023/01/24 09:11:55;;;;;;;33.22;17.17;;;;;;;0.14;89.86;103498.91;7395843;19;20039;-70
2023/01/24 09:14:24;;;;;;;33.15;17.52;;;;;;;0.14;90.43;103494.63;7396066;19;20015;-70
2023/01/24 09:16:52;;;;;;;35.60;17.60;;;;;;;0.17;89.76;103503.38;7397676;19;20086;-70
2023/01/24 09:19:20;;;;;;;36.13;17.83;;;;;;;0.17;90.27;103504.25;7394709;19;20070;-70
2023/01/24 09:21:51;;;;;;;63.80;31.38;;;;;;;0.20;90.33;103500.97;7395073;19;20081;-69
2023/01/24 09:24:20;;;;;;;38.78;19.17;;;;;;;0.22;89.85;103496.81;7395185;19;20018;-70
2023/01/24 09:26:49;;;;;;;38.15;19.70;;;;;;;0.25;90.71;103502.19;7397647;19;20023;-70
2023/01/24 09:29:20;;;;;;;39.35;19.60;;;;;;;0.27;88.79;103498.00;7396989;19;20028;-69
2023/01/24 09:31:49;;;;;;;41.17;19.17;;;;;;;0.26;89.38;103493.63;7397061;19;20031;-69
2023/01/24 09:34:18;;;;;;;44.83;19.10;;;;;;;0.27;88.89;103500.59;7395188;19;20090;-69
2023/01/24 09:36:50;;;;;;;41.22;19.58;;;;;;;0.27;89.46;103506.66;7396849;19;20074;-70
2023/01/24 09:39:18;;;;;;;43.35;20.25;;;;;;;0.31;90.19;103513.78;7396694;19;20018;-69
2023/01/24 09:42:06;;;;;;;44.80;19.58;;;;;;;0.33;89.27;103506.16;7394559;19;20100;-70
2023/01/24 09:44:45;;;;;;;41.25;19.88;;;;;;;0.37;90.68;103505.56;7394823;19;20019;-69
2023/01/24 09:47:21;;;;;;;47.65;21.52;;;;;;;0.40;90.36;103502.28;7397119;19;20205;-69
2023/01/24 09:49:53;;;;;;;41.20;20.70;;;;;;;0.43;88.65;103498.22;7395028;19;20087;-70
2023/01/24 09:52:30;;;;;;;43.30;20.05;;;;;;;0.42;88.55;103496.41;7395043;19;20030;-69
2023/01/24 09:55:14;;;;;;;52.40;20.38;;;;;;;0.40;88.49;103503.16;7394462;19;20021;-69
2023/01/24 09:57:52;;;;;;;47.05;20.80;;;;;;;0.42;88.51;103493.84;7394496;19;20043;-69
2023/01/24 10:00:28;;;;;;;51.92;20.90;;;;;;;0.43;88.62;103498.22;7394005;19;20015;-69
2023/01/24 10:02:58;;;;;;;47.13;20.80;;;;;;;0.43;89.03;103498.22;7393745;19;20027;-69
2023/01/24 10:05:34;;;;;;;50.88;20.88;;;;;;;0.45;87.62;103490.56;7396586;19;20090;-69
2023/01/24 10:08:20;;;;;;;47.25;21.00;;;;;;;0.48;88.84;103494.22;7396916;19;20078;-69
2023/01/24 10:10:56;;;;;;;48.88;21.65;;;;;;;0.53;88.55;103497.13;7393831;19;20510;-69
2023/01/24 10:14:02;;;;;;;45.80;20.67;;;;;;;0.55;87.59;103492.94;7393836;19;20082;-68
2023/01/24 10:17:13;;;;;;;49.35;21.67;;;;;;;0.56;85.94;103493.84;7393147;19;20019;-69
2023/01/24 10:20:09;;;;;;;53.03;23.02;;;;;;;0.52;86.47;103485.00;7390818;19;20018;-69
2023/01/24 10:22:58;;;;;;;49.30;22.42;;;;;;;0.51;87.49;103490.06;7394361;19;20022;-69
2023/01/24 10:25:31;;;;;;;56.08;23.17;;;;;;;0.51;87.55;103482.31;7393462;19;20069;-69
2023/01/24 10:28:04;;;;;;;54.42;24.83;;;;;;;0.53;87.62;103485.88;7393123;19;20082;-70
2023/01/24 10:30:41;;;;;;;53.90;25.52;;;;;;;0.55;88.21;103479.13;7395708;19;20018;-69
2023/01/24 10:33:19;;;;;;;53.53;22.70;;;;;;;0.58;88.30;103476.72;7394706;19;20082;-69
2023/01/24 10:35:57;;;;;;;56.53;24.10;;;;;;;0.59;87.12;103471.66;7393928;19;20018;-69
2023/01/24 10:38:27;;;;;;;50.72;23.70;;;;;;;0.60;87.94;103469.97;7392859;19;20086;-69
2023/01/24 10:40:58;;;;;;;55.55;23.20;;;;;;;0.61;88.60;103464.00;7392748;19;20081;-69
2023/01/24 10:43:30;;;;;;;55.67;24.90;;;;;;;0.66;88.81;103454.84;7393928;19;20075;-69
2023/01/24 10:46:21;;;;;;;53.33;23.00;;;;;;;0.72;88.92;103454.34;7393030;19;20070;-70
2023/01/24 10:48:56;;;;;;;55.63;24.20;;;;;;;0.77;88.26;103455.50;7394464;19;20090;-69
2023/01/24 10:51:26;;;;;;;52.35;23.73;;;;;;;0.83;89.12;103453.31;7394011;19;20090;-72
2023/01/24 10:54:02;;;;;;;58.45;26.17;;;;;;;0.86;89.04;103450.94;7392824;19;20082;-69
2023/01/24 10:56:31;;;;;;;59.85;23.25;;;;;;;0.91;88.79;103446.03;7394622;19;20082;-70
2023/01/24 10:59:02;;;;;;;54.83;23.13;;;;;;;0.94;88.46;103454.00;7396507;19;20428;-68
2023/01/24 11:01:40;;;;;;;54.80;23.25;;;;;;;0.98;87.91;103449.06;7394567;19;20022;-67
2023/01/24 11:04:23;;;;;;;57.15;25.80;;;;;;;1.01;87.93;103457.84;7392290;19;20045;-68
2023/01/24 11:06:53;;;;;;;57.28;24.13;;;;;;;0.99;87.65;103455.16;7392276;19;20028;-67
2023/01/24 11:09:24;;;;;;;62.88;25.98;;;;;;;1.01;88.24;103452.66;7393827;19;20082;-67
2023/01/24 11:11:55;;;;;;;51.83;24.88;;;;;;;1.02;88.33;103457.91;7397625;19;20018;-67
2023/01/24 11:14:27;;;;;;;59.22;24.67;;;;;;;1.05;88.06;103455.53;7402627;19;20039;-67
2023/01/24 11:16:57;;;;;;;56.95;23.52;;;;;;;1.07;87.07;103453.03;7402181;19;20074;-67
2023/01/24 11:19:32;;;;;;;56.15;24.48;;;;;;;1.10;88.67;103448.94;7398888;19;20015;-67
2023/01/24 11:22:02;;;;;;;56.40;23.30;;;;;;;1.12;87.86;103447.34;7398454;19;20070;-67
2023/01/24 11:24:32;;;;;;;56.55;23.55;;;;;;;1.16;88.02;103447.53;7399165;19;20023;-68
2023/01/24 11:27:06;;;;;;;54.00;22.55;;;;;;;1.17;88.43;103462.25;7401862;19;20018;-67
2023/01/24 11:29:35;;;;;;;59.22;24.13;;;;;;;1.19;87.70;103452.88;7402357;19;20022;-67
2023/01/24 11:32:21;;;;;;;51.45;24.10;;;;;;;1.21;88.63;103457.34;7398395;19;20018;-68
2023/01/24 11:34:58;;;;;;;55.35;24.98;;;;;;;1.26;87.67;103449.88;7398512;19;20092;-68
2023/01/24 11:37:53;;;;;;;54.13;23.70;;;;;;;1.27;85.84;103454.25;7398848;19;20073;-68
2023/01/24 11:40:30;;;;;;;52.13;23.70;;;;;;;1.26;87.04;103447.28;7401292;19;20087;-67
2023/01/24 11:43:20;;;;;;;56.40;22.85;;;;;;;1.25;86.42;103448.09;7398718;19;20031;-68
2023/01/24 11:46:07;;;;;;;54.40;22.95;;;;;;;1.20;85.62;103450.41;7397998;19;20015;-67
2023/01/24 11:48:44;;;;;;;59.10;24.98;;;;;;;1.21;87.75;103440.94;7398676;19;20015;-67
2023/01/24 11:51:22;;;;;;;64.60;25.48;;;;;;;1.21;88.14;103439.25;7398969;19;20071;-67
2023/01/24 11:54:06;;;;;;;54.75;24.23;;;;;;;1.25;88.08;103442.91;7398291;19;20028;-66
2023/01/24 11:56:44;;;;;;;54.33;23.63;;;;;;;1.28;88.71;103443.13;7400300;19;20496;-67
2023/01/24 11:59:28;;;;;;;58.58;24.77;;;;;;;1.32;87.84;103439.03;7400560;19;20592;-67
2023/01/24 12:02:09;;;;;;;54.92;25.02;;;;;;;1.34;88.02;103438.31;7401064;19;20036;-67
2023/01/24 12:05:09;;;;;;;62.08;26.33;;;;;;;1.36;87.42;103436.69;7397919;19;20074;-67
2023/01/24 12:07:55;;;;;;;54.25;23.85;;;;;;;1.36;86.73;103430.63;7395384;19;20078;-68
2023/01/24 12:10:31;;;;;;;62.30;25.30;;;;;;;1.36;87.00;103430.63;7398002;19;20052;-67
2023/01/24 12:13:07;;;;;;;60.85;25.55;;;;;;;1.32;87.01;103424.38;7397451;19;20106;-67
2023/01/24 12:15:45;;;;;;;61.78;24.58;;;;;;;1.32;87.38;103424.38;7396942;19;20047;-65
2023/01/24 12:18:48;;;;;;;62.30;25.70;;;;;;;1.29;87.10;103427.69;7395885;19;20427;-67